Time;durP1;ratioP1;P1;durP2;ratioP2;P2;SDS_P1;SDS_P2;PMS_P1;PMS_P2;Temp;Humidity;BMP_temperature;BMP_pressure;BME280_temperature;BME280_humidity;BME280_pressure;Samples;Min_cycle;Max_cycle;Signal;HPM_P1;HPM_P2
2020/12/24 00:01:10;;;;;;;3.15;1.30;;;12.90;77.50;;;;;;5055834;28;20024;-77
2020/12/24 00:03:36;;;;;;;4.25;1.42;;;13.00;77.20;;;;;;5072477;28;20110;-77
2020/12/24 00:06:01;;;;;;;3.88;1.55;;;12.60;76.80;;;;;;5069216;28;20523;-76
2020/12/24 00:08:27;;;;;;;4.28;1.33;;;12.90;77.10;;;;;;5022506;28;20068;-77
2020/12/24 00:10:53;;;;;;;4.15;1.45;;;12.90;77.20;;;;;;5081622;28;20039;-77
2020/12/24 00:13:18;;;;;;;4.22;1.20;;;12.90;77.00;;;;;;5048663;28;20028;-77
2020/12/24 00:15:44;;;;;;;5.93;1.73;;;13.00;76.90;;;;;;5042714;28;20040;-76
2020/12/24 00:18:10;;;;;;;5.85;1.45;;;13.10;76.70;;;;;;5056990;28;20086;-76
2020/12/24 00:20:36;;;;;;;6.00;1.85;;;13.10;76.40;;;;;;5069147;28;20036;-75
2020/12/24 00:23:02;;;;;;;3.95;1.52;;;13.20;76.30;;;;;;5064663;28;20103;-76
2020/12/24 00:25:28;;;;;;;5.82;1.67;;;13.20;76.30;;;;;;5055190;28;20028;-77
2020/12/24 00:27:54;;;;;;;4.80;1.60;;;13.20;76.30;;;;;;5064903;28;20032;-77
2020/12/24 00:30:19;;;;;;;3.45;1.33;;;13.30;76.20;;;;;;5051849;28;20139;-77
2020/12/24 00:32:45;;;;;;;4.88;1.58;;;13.30;76.00;;;;;;5035207;28;20039;-77
2020/12/24 00:35:11;;;;;;;2.97;1.50;;;13.30;75.70;;;;;;5052012;28;20029;-77
2020/12/24 00:37:37;;;;;;;5.40;2.15;;;13.30;75.70;;;;;;5068956;28;20029;-76
2020/12/24 00:40:05;;;;;;;4.60;2.03;;;13.30;75.70;;;;;;5060302;28;20040;-76
2020/12/24 00:42:30;;;;;;;4.57;1.90;;;13.30;75.80;;;;;;5054364;28;20031;-77
2020/12/24 00:44:56;;;;;;;6.30;3.08;;;13.30;75.80;;;;;;5068200;28;20029;-77
2020/12/24 00:47:22;;;;;;;5.40;1.75;;;13.40;75.80;;;;;;5051141;28;20335;-77
2020/12/24 00:49:47;;;;;;;4.38;2.33;;;13.40;75.80;;;;;;5047487;28;20037;-77
2020/12/24 00:52:13;;;;;;;9.38;2.88;;;13.40;75.80;;;;;;5046305;28;20425;-77
2020/12/24 00:54:39;;;;;;;4.25;1.90;;;13.40;75.80;;;;;;5069278;28;20390;-76
2020/12/24 00:57:04;;;;;;;4.25;1.90;;;13.40;75.80;;;;;;5015533;28;20395;-77
2020/12/24 00:59:30;;;;;;;4.93;1.67;;;13.50;75.80;;;;;;5054355;28;20059;-76
2020/12/24 01:01:55;;;;;;;5.18;2.22;;;13.50;75.80;;;;;;5076250;28;20090;-77
2020/12/24 01:04:21;;;;;;;8.50;2.47;;;13.50;75.80;;;;;;5055242;28;20572;-77
2020/12/24 01:06:47;;;;;;;6.50;2.22;;;13.50;75.90;;;;;;5040267;28;20033;-77
2020/12/24 01:09:13;;;;;;;5.95;1.80;;;13.40;76.00;;;;;;5054449;28;20047;-77
2020/12/24 01:11:39;;;;;;;7.25;2.35;;;13.40;75.80;;;;;;5079759;28;20028;-77
2020/12/24 01:14:04;;;;;;;6.50;2.65;;;13.40;76.00;;;;;;5073071;28;20365;-76
2020/12/24 01:16:30;;;;;;;7.80;2.90;;;13.40;75.70;;;;;;5076108;28;20040;-77
2020/12/24 01:18:56;;;;;;;9.40;2.45;;;13.30;75.40;;;;;;5055518;28;20131;-77
2020/12/24 01:21:21;;;;;;;7.63;2.42;;;13.30;75.20;;;;;;5075054;28;20046;-78
2020/12/24 01:23:47;;;;;;;8.40;2.45;;;13.40;75.10;;;;;;5040354;28;20119;-77
2020/12/24 01:26:13;;;;;;;11.57;2.50;;;13.30;74.90;;;;;;5056468;28;20056;-77
2020/12/24 01:28:38;;;;;;;9.10;1.98;;;13.30;74.60;;;;;;5065278;28;20040;-77
2020/12/24 01:31:04;;;;;;;7.18;2.22;;;13.30;74.70;;;;;;5039880;28;20378;-77
2020/12/24 01:33:29;;;;;;;6.50;1.92;;;13.20;74.60;;;;;;5067507;28;20139;-77
2020/12/24 01:35:58;;;;;;;6.75;1.70;;;13.20;74.00;;;;;;5046530;28;20028;-77
2020/12/24 01:38:23;;;;;;;7.18;1.85;;;13.10;74.30;;;;;;5039113;28;20379;-77
2020/12/24 01:40:58;;;;;;;8.25;2.00;;;13.10;74.20;;;;;;5044716;28;20032;-77
2020/12/24 01:43:24;;;;;;;9.70;1.95;;;13.10;74.00;;;;;;5072126;28;20021;-77
2020/12/24 01:45:57;;;;;;;9.27;2.60;;;13.10;73.90;;;;;;5037554;28;20090;-77
2020/12/24 01:48:25;;;;;;;6.72;2.00;;;13.10;73.90;;;;;;5054791;28;20029;-77
2020/12/24 01:50:50;;;;;;;8.18;1.95;;;13.10;73.70;;;;;;5083566;28;20033;-77
2020/12/24 01:53:21;;;;;;;7.43;2.58;;;13.00;73.70;;;;;;5051346;28;20159;-77
2020/12/24 01:55:48;;;;;;;8.13;3.22;;;13.10;73.70;;;;;;5052815;28;20033;-77
2020/12/24 01:58:15;;;;;;;7.15;1.63;;;14.60;74.80;;;;;;5040730;28;20048;-78
2020/12/24 02:00:42;;;;;;;6.38;1.85;;;12.90;74.00;;;;;;5039129;28;20043;-77
2020/12/24 02:03:08;;;;;;;9.88;2.53;;;12.80;74.20;;;;;;5074197;28;20036;-77
2020/12/24 02:05:33;;;;;;;4.85;1.85;;;12.80;74.30;;;;;;5076673;28;20043;-77
2020/12/24 02:07:59;;;;;;;7.68;1.63;;;12.70;74.20;;;;;;5041665;28;20382;-77
2020/12/24 02:10:24;;;;;;;13.85;2.47;;;12.70;74.40;;;;;;5056074;28;20115;-76
2020/12/24 02:12:50;;;;;;;9.32;1.92;;;12.70;74.30;;;;;;5056505;28;20417;-78
2020/12/24 02:15:16;;;;;;;7.10;2.00;;;12.70;74.40;;;;;;5054877;28;20033;-77
2020/12/24 02:17:41;;;;;;;5.57;2.15;;;12.70;74.20;;;;;;5058403;28;20025;-78
2020/12/24 02:20:07;;;;;;;7.05;1.92;;;12.60;74.20;;;;;;5056467;28;20123;-77
2020/12/24 02:22:33;;;;;;;4.65;1.80;;;12.60;74.40;;;;;;5069012;28;20029;-76
2020/12/24 02:24:58;;;;;;;6.30;2.30;;;12.70;74.50;;;;;;5064165;28;20037;-76
2020/12/24 02:27:24;;;;;;;6.43;2.05;;;12.70;74.40;;;;;;5041039;28;20458;-77
2020/12/24 02:29:49;;;;;;;7.03;2.08;;;12.70;74.10;;;;;;5068825;28;20045;-77
2020/12/24 02:32:15;;;;;;;9.95;2.25;;;12.80;73.90;;;;;;5067933;28;20078;-76
2020/12/24 02:34:41;;;;;;;8.15;1.90;;;12.80;74.00;;;;;;5048112;28;20487;-76
2020/12/24 02:37:09;;;;;;;6.13;1.80;;;12.80;74.20;;;;;;5052336;28;20025;-77
2020/12/24 02:39:35;;;;;;;10.27;2.45;;;12.80;74.10;;;;;;5073433;28;20441;-76
2020/12/24 02:42:00;;;;;;;7.93;2.13;;;12.90;74.10;;;;;;5047708;28;20060;-76
2020/12/24 02:44:26;;;;;;;5.47;1.67;;;12.90;74.00;;;;;;5057857;28;20470;-76
2020/12/24 02:46:52;;;;;;;8.82;2.35;;;12.90;73.70;;;;;;5068271;28;20037;-77
2020/12/24 02:49:18;;;;;;;9.13;2.17;;;12.90;73.70;;;;;;5069885;28;20028;-77
2020/12/24 02:51:43;;;;;;;8.38;2.53;;;12.90;73.40;;;;;;5050391;28;20036;-77
2020/12/24 02:54:09;;;;;;;9.60;2.35;;;12.90;73.40;;;;;;5072407;28;20419;-77
2020/12/24 02:56:34;;;;;;;5.45;2.17;;;12.80;73.50;;;;;;5070130;28;20119;-77
2020/12/24 02:59:00;;;;;;;7.20;2.17;;;12.80;73.80;;;;;;5054839;28;20052;-77
2020/12/24 03:01:26;;;;;;;9.32;2.65;;;12.80;73.80;;;;;;5052916;28;20032;-76
2020/12/24 03:03:51;;;;;;;6.70;2.25;;;12.80;73.70;;;;;;5031528;28;20076;-76
2020/12/24 03:06:17;;;;;;;6.93;2.63;;;12.80;73.50;;;;;;5053113;28;20040;-76
2020/12/24 03:08:43;;;;;;;9.63;2.50;;;12.80;73.70;;;;;;5049625;28;20037;-76
2020/12/24 03:11:08;;;;;;;9.95;2.30;;;12.70;73.50;;;;;;5055415;28;20035;-76
2020/12/24 03:13:34;;;;;;;8.85;1.88;;;12.70;73.80;;;;;;5050256;28;20108;-76
2020/12/24 03:16:00;;;;;;;10.75;2.28;;;12.70;73.90;;;;;;5050209;28;20108;-76
2020/12/24 03:18:25;;;;;;;9.98;2.97;;;12.80;73.80;;;;;;5049989;28;20029;-77
2020/12/24 03:20:51;;;;;;;11.98;3.15;;;12.80;73.70;;;;;;5052465;28;20032;-76
2020/12/24 03:23:16;;;;;;;10.02;2.75;;;12.80;73.80;;;;;;5057043;28;20087;-77
2020/12/24 03:25:42;;;;;;;10.93;2.28;;;12.80;73.80;;;;;;5030162;28;20382;-77
2020/12/24 03:28:08;;;;;;;7.78;2.53;;;12.80;73.70;;;;;;5056613;28;20056;-76
2020/12/24 03:30:33;;;;;;;8.65;2.25;;;12.80;73.80;;;;;;5062640;28;20024;-77
2020/12/24 03:32:59;;;;;;;8.38;2.58;;;12.80;73.80;;;;;;5048949;28;20527;-75
2020/12/24 03:35:24;;;;;;;11.65;3.10;;;12.80;73.90;;;;;;5049169;28;20063;-76
2020/12/24 03:37:50;;;;;;;7.90;1.92;;;12.80;73.90;;;;;;5038433;28;20082;-77
2020/12/24 03:40:16;;;;;;;10.30;2.40;;;12.80;74.10;;;;;;5054591;28;20227;-76
2020/12/24 03:42:41;;;;;;;8.90;2.00;;;12.80;74.00;;;;;;5055387;28;20028;-76
2020/12/24 03:45:07;;;;;;;24.42;4.40;;;12.70;73.80;;;;;;5049637;28;20045;-77
2020/12/24 03:47:33;;;;;;;10.30;2.40;;;12.60;74.10;;;;;;5030036;28;20528;-77
2020/12/24 03:49:58;;;;;;;12.55;2.35;;;12.60;74.40;;;;;;5044459;28;20091;-76
2020/12/24 03:52:24;;;;;;;7.97;2.20;;;12.50;74.60;;;;;;5061247;28;20047;-77
2020/12/24 03:54:49;;;;;;;11.95;2.60;;;12.50;74.60;;;;;;5045039;28;20370;-76
2020/12/24 03:57:15;;;;;;;8.05;2.22;;;12.60;74.50;;;;;;5054555;28;20121;-76
2020/12/24 03:59:41;;;;;;;8.55;2.88;;;12.70;74.30;;;;;;5059164;28;20454;-76
2020/12/24 04:02:07;;;;;;;12.70;4.95;;;12.70;74.30;;;;;;5054284;28;20138;-76
2020/12/24 04:04:32;;;;;;;7.75;2.13;;;12.60;74.40;;;;;;5052707;28;20029;-77
2020/12/24 04:06:58;;;;;;;11.13;3.08;;;12.60;74.40;;;;;;5069641;28;20462;-76
2020/12/24 04:09:24;;;;;;;10.25;2.72;;;12.60;74.40;;;;;;5052113;28;20339;-77
2020/12/24 04:11:49;;;;;;;10.57;3.08;;;12.60;74.40;;;;;;5064070;28;20039;-76
2020/12/24 04:14:15;;;;;;;9.30;2.15;;;12.60;74.50;;;;;;5013718;28;20404;-76
2020/12/24 04:16:41;;;;;;;10.40;3.42;;;12.60;74.80;;;;;;5046057;28;20044;-78
2020/12/24 04:19:06;;;;;;;12.77;3.15;;;12.60;74.80;;;;;;5035450;28;20032;-76
2020/12/24 04:21:32;;;;;;;11.50;2.90;;;12.50;74.70;;;;;;5067450;28;20468;-77
2020/12/24 04:23:57;;;;;;;11.82;2.67;;;12.50;74.90;;;;;;5049593;28;20402;-76
2020/12/24 04:26:23;;;;;;;10.60;2.33;;;12.50;75.00;;;;;;5050852;28;20119;-77
2020/12/24 04:28:50;;;;;;;8.88;2.17;;;12.60;75.10;;;;;;5077183;28;20134;-76
2020/12/24 04:31:15;;;;;;;10.45;2.22;;;12.60;75.10;;;;;;5069597;28;20039;-77
2020/12/24 04:33:42;;;;;;;12.02;2.70;;;12.60;75.20;;;;;;5051034;28;20483;-76
2020/12/24 04:36:08;;;;;;;17.73;2.70;;;12.60;75.10;;;;;;5068714;28;20036;-76
2020/12/24 04:38:34;;;;;;;14.77;3.63;;;12.60;75.20;;;;;;5069102;28;20029;-76
2020/12/24 04:41:01;;;;;;;12.27;2.20;;;12.60;75.40;;;;;;5051483;28;20040;-77
2020/12/24 04:43:27;;;;;;;10.15;2.65;;;12.50;75.60;;;;;;5078178;28;20020;-76
2020/12/24 04:45:54;;;;;;;8.10;3.08;;;12.40;75.80;;;;;;5070754;28;20029;-77
2020/12/24 04:48:20;;;;;;;18.13;2.97;;;12.40;76.20;;;;;;5069380;28;20105;-76
2020/12/24 04:50:49;;;;;;;11.00;3.10;;;12.40;76.50;;;;;;5048955;28;20037;-76
2020/12/24 04:53:16;;;;;;;5.75;1.80;;;12.40;76.40;;;;;;5075174;28;20056;-76
2020/12/24 04:55:42;;;;;;;4.43;1.48;;;12.30;75.70;;;;;;5053669;28;20037;-77
2020/12/24 04:58:10;;;;;;;1.63;0.88;;;12.20;74.70;;;;;;5069247;28;20039;-76
2020/12/24 05:00:39;;;;;;;2.42;0.80;;;12.00;73.70;;;;;;5069280;28;20124;-76
2020/12/24 05:03:07;;;;;;;0.73;0.60;;;11.70;73.10;;;;;;5072552;28;20489;-76
2020/12/24 05:05:33;;;;;;;0.63;0.50;;;11.50;73.40;;;;;;5062139;28;20037;-76
2020/12/24 05:08:09;;;;;;;1.08;0.65;;;11.30;72.60;;;;;;5073406;28;20178;-76
2020/12/24 05:10:36;;;;;;;0.80;0.60;;;11.10;72.90;;;;;;5068746;28;20044;-77
2020/12/24 05:13:16;;;;;;;0.77;0.50;;;10.90;72.50;;;;;;5050439;28;20024;-76
2020/12/24 05:15:42;;;;;;;1.40;0.70;;;10.70;72.60;;;;;;5054754;28;20032;-76
2020/12/24 05:18:14;;;;;;;0.73;0.50;;;10.60;72.50;;;;;;5051999;28;20025;-76
2020/12/24 05:20:40;;;;;;;4.85;1.35;;;10.50;73.10;;;;;;5068714;28;20059;-76
2020/12/24 05:23:20;;;;;;;0.85;0.63;;;10.40;73.30;;;;;;5076075;28;20033;-76
2020/12/24 05:25:47;;;;;;;1.05;0.60;;;10.30;73.20;;;;;;5051775;28;20435;-76
2020/12/24 05:28:25;;;;;;;0.75;0.52;;;10.20;73.00;;;;;;5066263;28;20035;-76
2020/12/24 05:30:52;;;;;;;1.88;0.70;;;10.10;73.40;;;;;;5068986;28;20389;-76
2020/12/24 05:33:33;;;;;;;0.50;0.45;;;10.00;73.40;;;;;;5067674;28;20021;-76
2020/12/24 05:36:21;;;;;;;0.75;0.50;;;9.90;73.50;;;;;;5046634;28;20033;-76
2020/12/24 05:38:48;;;;;;;0.57;0.50;;;9.90;73.00;;;;;;5059344;28;20052;-75
2020/12/24 05:41:35;;;;;;;1.00;0.55;;;9.70;73.40;;;;;;5044609;28;20037;-76
2020/12/24 05:44:00;;;;;;;1.17;0.60;;;9.70;73.50;;;;;;5069947;28;20035;-76
2020/12/24 05:46:28;;;;;;;0.47;0.47;;;9.70;73.20;;;;;;5064913;28;20028;-76
2020/12/24 05:48:55;;;;;;;0.47;0.47;;;9.60;73.40;;;;;;5075218;28;20040;-75
2020/12/24 05:51:20;;;;;;;1.05;0.50;;;9.60;73.30;;;;;;5071587;28;20395;-76
2020/12/24 05:53:47;;;;;;;0.40;0.40;;;9.50;72.80;;;;;;5048452;28;20040;-76
2020/12/24 05:56:20;;;;;;;0.90;0.50;;;9.30;73.00;;;;;;5051996;28;20478;-75
2020/12/24 05:58:50;;;;;;;0.82;0.63;;;9.20;73.40;;;;;;5018733;28;20041;-76
2020/12/24 06:01:17;;;;;;;0.73;0.50;;;9.10;73.60;;;;;;5052916;28;20024;-77
2020/12/24 06:04:08;;;;;;;0.65;0.65;;;9.10;73.80;;;;;;5073147;28;20135;-76
2020/12/24 06:06:45;;;;;;;0.82;0.50;;;9.20;73.70;;;;;;5071154;28;20175;-76
2020/12/24 06:09:19;;;;;;;1.17;0.80;;;9.20;73.50;;;;;;5072813;28;20146;-75
2020/12/24 06:11:52;;;;;;;1.77;0.82;;;9.20;73.20;;;;;;5052743;28;20493;-75
2020/12/24 06:14:31;;;;;;;1.40;0.70;;;9.20;73.00;;;;;;5054481;28;20461;-74
2020/12/24 06:17:07;;;;;;;1.30;0.70;;;9.10;73.10;;;;;;5054074;28;20282;-75
2020/12/24 06:19:38;;;;;;;1.85;0.70;;;8.90;73.20;;;;;;5071179;28;20062;-75
2020/12/24 06:22:04;;;;;;;1.25;0.85;;;8.90;73.70;;;;;;5070160;28;20442;-75
2020/12/24 06:24:37;;;;;;;1.65;0.73;;;8.90;74.00;;;;;;5044937;28;20036;-75
2020/12/24 06:27:07;;;;;;;1.48;1.00;;;8.90;74.00;;;;;;5051571;28;20119;-75
2020/12/24 06:29:36;;;;;;;0.85;0.70;;;9.00;74.20;;;;;;5070946;28;20036;-75
2020/12/24 06:32:05;;;;;;;0.95;0.70;;;9.00;74.30;;;;;;5071683;28;20462;-75
2020/12/24 06:34:31;;;;;;;1.55;0.70;;;9.20;74.10;;;;;;5070808;28;20111;-74
2020/12/24 06:37:18;;;;;;;3.78;1.20;;;9.20;74.00;;;;;;5071203;28;20136;-75
2020/12/24 06:39:51;;;;;;;1.25;0.60;;;9.30;73.70;;;;;;5050178;28;20128;-75
2020/12/24 06:42:35;;;;;;;1.27;0.90;;;9.40;73.60;;;;;;5069134;28;20107;-74
2020/12/24 06:45:07;;;;;;;1.25;0.70;;;9.40;73.70;;;;;;5052397;28;20059;-75
2020/12/24 06:47:33;;;;;;;1.25;0.85;;;9.50;73.70;;;;;;5069359;28;20052;-75
2020/12/24 06:49:58;;;;;;;1.48;1.00;;;9.50;73.70;;;;;;5053692;28;20071;-74
2020/12/24 06:52:31;;;;;;;2.22;0.98;;;9.50;73.70;;;;;;5070870;28;20033;-75
2020/12/24 06:55:16;;;;;;;2.42;0.90;;;9.60;73.80;;;;;;5070292;28;20484;-74
2020/12/24 06:57:43;;;;;;;2.00;0.93;;;9.50;73.70;;;;;;5069919;28;20063;-75
2020/12/24 07:00:17;;;;;;;1.80;1.05;;;9.50;73.70;;;;;;5051811;28;20340;-77
2020/12/24 07:02:46;;;;;;;2.38;0.95;;;9.50;73.70;;;;;;5067245;28;20198;-82
2020/12/24 07:05:40;;;;;;;5.05;1.35;;;9.50;73.80;;;;;;5070361;28;20110;-77
2020/12/24 07:08:26;;;;;;;2.60;1.10;;;9.50;73.70;;;;;;5034283;28;20475;-76
2020/12/24 07:10:51;;;;;;;1.27;0.80;;;9.60;73.50;;;;;;5039286;28;20115;-78
2020/12/24 07:13:37;;;;;;;1.42;0.80;;;9.50;73.40;;;;;;5070146;28;20104;-77
2020/12/24 07:16:08;;;;;;;1.45;1.13;;;9.50;73.50;;;;;;5071109;28;20082;-79
2020/12/24 07:18:38;;;;;;;1.25;0.90;;;9.50;73.40;;;;;;5071359;28;20122;-79
2020/12/24 07:21:06;;;;;;;2.60;0.80;;;9.50;73.50;;;;;;5052244;28;20028;-79
2020/12/24 07:23:39;;;;;;;2.00;1.10;;;9.60;73.50;;;;;;5051507;28;20115;-79
2020/12/24 07:28:41;;;;;;;3.00;1.50;;;9.60;73.70;;;;;;5361926;22;20054;-80
2020/12/24 07:31:08;;;;;;;1.63;0.90;;;9.70;73.90;;;;;;5003064;28;20030;-80
2020/12/24 07:33:34;;;;;;;3.35;1.10;;;9.70;73.80;;;;;;5003691;28;20104;-80
2020/12/24 07:36:01;;;;;;;1.83;1.05;;;9.80;73.80;;;;;;4993206;28;20535;-80
2020/12/24 07:38:29;;;;;;;2.15;0.98;;;9.80;73.80;;;;;;5007675;28;20167;-81
2020/12/24 07:40:56;;;;;;;2.30;0.90;;;9.70;73.80;;;;;;5007774;28;20547;-79
2020/12/24 07:43:23;;;;;;;2.63;1.00;;;9.70;73.70;;;;;;4995285;28;20105;-78
2020/12/24 07:45:50;;;;;;;3.05;1.05;;;9.80;73.70;;;;;;4992885;28;20026;-80
2020/12/24 07:48:20;;;;;;;3.03;1.30;;;9.70;73.80;;;;;;5006730;28;20025;-77
2020/12/24 07:50:48;;;;;;;2.17;0.95;;;9.70;74.00;;;;;;5003748;28;20038;-79
2020/12/24 07:53:22;;;;;;;1.90;0.90;;;9.60;74.20;;;;;;4999110;28;20078;-78
2020/12/24 07:55:49;;;;;;;4.03;1.60;;;9.50;74.30;;;;;;4999320;28;20046;-81
2020/12/24 07:58:15;;;;;;;1.98;1.00;;;9.20;75.10;;;;;;5000486;28;20113;-79
2020/12/24 08:00:52;;;;;;;2.25;1.20;;;9.10;75.80;;;;;;5012397;28;20056;-80
2020/12/24 08:03:19;;;;;;;4.70;1.70;;;9.00;76.10;;;;;;4995350;28;20109;-82
2020/12/24 08:05:47;;;;;;;2.97;1.40;;;8.90;76.70;;;;;;5011085;28;20026;-80
2020/12/24 08:08:20;;;;;;;4.85;1.80;;;8.70;76.90;;;;;;5010549;28;20121;-79
2020/12/24 08:10:45;;;;;;;3.70;1.70;;;8.70;77.30;;;;;;4999873;28;20033;-79
2020/12/24 08:13:11;;;;;;;3.92;1.50;;;8.60;77.80;;;;;;4996549;28;20448;-81
2020/12/24 08:15:41;;;;;;;3.33;1.50;;;8.60;77.90;;;;;;4977417;28;20092;-79
2020/12/24 08:18:13;;;;;;;5.22;1.85;;;8.60;78.30;;;;;;4995408;28;20034;-81
2020/12/24 08:20:59;;;;;;;4.70;1.90;;;8.50;78.40;;;;;;4991498;28;20495;-79
2020/12/24 08:23:52;;;;;;;3.58;1.80;;;8.70;78.50;;;;;;5001679;28;20052;-76
2020/12/24 08:26:19;;;;;;;4.13;1.40;;;8.70;78.20;;;;;;4982210;28;20053;-75
2020/12/24 08:28:54;;;;;;;2.28;1.30;;;8.60;78.30;;;;;;5003433;28;20049;-77
2020/12/24 08:31:20;;;;;;;3.13;1.35;;;8.60;78.40;;;;;;4997685;28;20022;-78
2020/12/24 08:33:51;;;;;;;3.25;1.45;;;8.60;78.60;;;;;;4985779;28;20038;-78
2020/12/24 08:36:21;;;;;;;3.33;1.67;;;8.60;78.20;;;;;;4983557;28;20041;-75
2020/12/24 08:38:48;;;;;;;4.35;1.58;;;8.50;78.70;;;;;;4989234;28;20064;-78
2020/12/24 08:41:21;;;;;;;4.40;1.80;;;8.50;79.00;;;;;;5002611;28;20385;-75
2020/12/24 08:43:56;;;;;;;4.40;1.65;;;8.50;79.30;;;;;;4978964;28;20034;-74
2020/12/24 08:46:23;;;;;;;4.97;2.15;;;8.50;79.40;;;;;;4978932;28;20027;-78
2020/12/24 08:48:49;;;;;;;4.40;1.92;;;8.50;79.60;;;;;;5001959;28;20085;-76
2020/12/24 08:51:17;;;;;;;6.15;2.30;;;8.60;79.60;;;;;;5001375;28;20036;-75
2020/12/24 08:53:43;;;;;;;4.35;1.83;;;8.50;79.40;;;;;;5006479;28;20033;-77
2020/12/24 08:56:17;;;;;;;5.38;2.80;;;8.50;79.70;;;;;;4995697;28;20029;-75
2020/12/24 08:58:47;;;;;;;4.18;1.83;;;8.60;79.70;;;;;;4995991;28;20105;-75
2020/12/24 09:01:12;;;;;;;5.05;2.13;;;8.60;79.70;;;;;;5002769;28;20022;-75
2020/12/24 09:03:38;;;;;;;5.25;2.30;;;8.60;79.50;;;;;;4986459;28;20060;-78
2020/12/24 09:06:10;;;;;;;4.18;2.00;;;8.70;79.20;;;;;;4989634;28;20164;-78
2020/12/24 09:08:37;;;;;;;5.17;2.10;;;8.60;79.30;;;;;;4996156;28;20096;-80
2020/12/24 09:11:02;;;;;;;4.40;2.20;;;8.70;79.40;;;;;;4982357;28;20368;-80
2020/12/24 09:13:28;;;;;;;4.82;2.60;;;8.70;79.20;;;;;;4998277;28;20113;-83
2020/12/24 09:15:53;;;;;;;4.20;1.92;;;8.60;79.50;;;;;;4988178;28;20025;-81
2020/12/24 09:18:19;;;;;;;4.45;2.08;;;8.60;79.40;;;;;;5003784;28;20053;-80
2020/12/24 09:20:45;;;;;;;4.63;1.98;;;8.60;79.60;;;;;;4959260;28;20064;-80
2020/12/24 09:23:12;;;;;;;5.63;2.35;;;8.70;79.50;;;;;;5004550;28;20038;-79
2020/12/24 09:25:46;;;;;;;3.95;2.00;;;8.70;79.80;;;;;;5005171;28;20030;-79
2020/12/24 09:28:25;;;;;;;3.15;1.67;;;8.70;79.60;;;;;;4993247;28;20403;-79
2020/12/24 09:30:53;;;;;;;4.22;2.00;;;8.70;79.40;;;;;;4996544;28;20038;-79
2020/12/24 09:33:19;;;;;;;5.75;2.47;;;8.70;79.50;;;;;;5008255;28;20026;-79
2020/12/24 09:35:44;;;;;;;5.75;2.10;;;8.60;79.70;;;;;;5003061;28;20092;-79
2020/12/24 09:38:10;;;;;;;5.03;2.13;;;8.70;79.70;;;;;;4973175;28;20065;-76
2020/12/24 09:40:38;;;;;;;4.30;2.15;;;8.60;79.80;;;;;;4971635;28;20392;-79
2020/12/24 09:43:04;;;;;;;3.20;1.67;;;8.70;79.90;;;;;;5012358;28;20040;-79
2020/12/24 09:45:30;;;;;;;4.43;2.15;;;8.70;79.80;;;;;;4999253;28;20053;-79
2020/12/24 09:47:56;;;;;;;4.93;1.92;;;8.70;79.70;;;;;;4995016;28;20034;-79
2020/12/24 09:50:22;;;;;;;5.05;2.63;;;8.70;79.80;;;;;;5007902;28;20034;-79
2020/12/24 09:52:48;;;;;;;5.10;2.08;;;8.70;79.80;;;;;;4998221;28;20503;-78
2020/12/24 09:55:13;;;;;;;3.95;1.90;;;8.80;79.90;;;;;;5009699;28;20097;-82
2020/12/24 09:57:39;;;;;;;5.20;2.20;;;8.70;80.10;;;;;;4997461;28;20138;-82
2020/12/24 10:00:08;;;;;;;4.65;2.65;;;8.70;79.90;;;;;;4996914;28;20482;-82
2020/12/24 10:02:34;;;;;;;4.82;2.13;;;8.70;80.10;;;;;;5000881;28;20476;-80
2020/12/24 10:05:00;;;;;;;9.02;3.30;;;8.70;80.10;;;;;;4998110;28;20045;-79
2020/12/24 10:07:25;;;;;;;4.60;2.08;;;8.70;80.30;;;;;;4984685;28;20372;-76
2020/12/24 10:09:53;;;;;;;7.72;2.58;;;8.70;80.40;;;;;;5003897;28;20506;-77
2020/12/24 10:12:23;;;;;;;5.55;2.40;;;8.80;80.30;;;;;;4990683;28;20046;-73
2020/12/24 10:14:50;;;;;;;9.98;3.55;;;8.80;80.40;;;;;;5011889;28;20057;-82
2020/12/24 10:17:15;;;;;;;5.60;2.20;;;8.80;80.40;;;;;;5019782;28;20109;-76
2020/12/24 10:19:44;;;;;;;6.22;2.45;;;8.80;80.40;;;;;;5012670;28;20260;-78
2020/12/24 10:22:11;;;;;;;6.22;2.50;;;8.90;80.30;;;;;;4977046;28;20105;-77
2020/12/24 10:24:38;;;;;;;7.18;2.60;;;9.00;80.10;;;;;;5006215;28;20023;-76
2020/12/24 10:27:04;;;;;;;6.80;2.60;;;9.00;80.30;;;;;;5008923;28;20030;-82
2020/12/24 10:29:30;;;;;;;6.80;2.90;;;9.10;80.20;;;;;;4996515;28;20034;-82
2020/12/24 10:31:56;;;;;;;7.25;2.50;;;9.00;80.00;;;;;;4980345;28;20049;-83
2020/12/24 10:34:21;;;;;;;6.07;2.47;;;9.00;80.10;;;;;;5012670;28;20099;-80
2020/12/24 10:36:47;;;;;;;5.63;2.40;;;9.00;80.40;;;;;;4980613;28;20069;-83
2020/12/24 10:39:12;;;;;;;7.53;2.47;;;9.00;80.50;;;;;;4960584;28;20092;-82
2020/12/24 10:41:39;;;;;;;6.78;2.70;;;9.10;80.40;;;;;;4984427;28;20056;-85
2020/12/24 10:44:06;;;;;;;7.70;2.95;;;9.10;80.40;;;;;;4979330;28;20334;-85
2020/12/24 10:46:32;;;;;;;6.28;2.50;;;9.10;80.20;;;;;;4992177;28;20034;-84
2020/12/24 10:48:58;;;;;;;5.57;2.50;;;9.10;80.60;;;;;;5003119;28;20492;-85
2020/12/24 10:51:24;;;;;;;7.85;2.88;;;9.10;80.60;;;;;;4986715;28;20030;-83
2020/12/24 10:53:50;;;;;;;6.05;2.25;;;9.20;80.70;;;;;;5011911;28;20038;-78
2020/12/24 10:56:16;;;;;;;5.68;2.40;;;9.20;80.50;;;;;;4988100;28;20108;-75
2020/12/24 10:58:42;;;;;;;6.70;2.92;;;9.30;80.30;;;;;;5002523;28;20121;-75
2020/12/24 11:01:12;;;;;;;6.30;2.60;;;9.20;80.20;;;;;;5006642;28;20026;-75
2020/12/24 11:03:38;;;;;;;7.05;2.40;;;9.30;80.40;;;;;;5004411;28;20022;-76
2020/12/24 11:06:05;;;;;;;4.70;2.15;;;9.30;80.10;;;;;;5004726;28;20026;-77
2020/12/24 11:08:31;;;;;;;9.13;3.53;;;9.40;80.30;;;;;;4967276;28;20062;-75
2020/12/24 11:10:57;;;;;;;4.75;2.50;;;9.50;80.20;;;;;;4992245;28;20132;-75
2020/12/24 11:13:24;;;;;;;9.55;2.65;;;9.50;80.10;;;;;;5002971;28;20050;-73
2020/12/24 11:15:50;;;;;;;7.35;2.15;;;9.50;79.90;;;;;;5005837;28;20045;-75
2020/12/24 11:18:16;;;;;;;5.43;1.95;;;9.50;79.80;;;;;;4990342;28;20063;-75
2020/12/24 11:20:41;;;;;;;7.35;2.47;;;9.60;79.90;;;;;;5005435;28;20124;-75
2020/12/24 11:23:07;;;;;;;10.57;2.72;;;9.70;79.80;;;;;;5005797;28;20130;-75
2020/12/24 11:25:33;;;;;;;4.75;2.10;;;9.70;79.50;;;;;;4999246;28;20041;-74
2020/12/24 11:27:58;;;;;;;5.45;2.25;;;9.80;79.40;;;;;;5000114;28;20403;-75
2020/12/24 11:30:24;;;;;;;9.23;3.08;;;9.80;79.20;;;;;;5003877;28;20408;-74
2020/12/24 11:32:50;;;;;;;6.43;2.20;;;9.80;79.10;;;;;;5004835;28;20049;-76
2020/12/24 11:35:16;;;;;;;4.63;2.22;;;9.80;79.00;;;;;;4991494;28;20033;-76
2020/12/24 11:37:41;;;;;;;6.82;2.25;;;9.90;78.90;;;;;;4994116;28;20031;-74
2020/12/24 11:40:07;;;;;;;9.25;2.85;;;9.90;78.80;;;;;;4986498;28;20050;-75
2020/12/24 11:42:32;;;;;;;16.35;3.47;;;9.90;78.70;;;;;;4984163;28;20042;-76
2020/12/24 11:44:59;;;;;;;8.02;2.97;;;9.90;78.80;;;;;;4989230;28;20411;-75
2020/12/24 11:47:24;;;;;;;9.57;2.60;;;9.90;78.80;;;;;;5004183;28;20050;-75
2020/12/24 11:49:50;;;;;;;6.72;2.95;;;10.00;78.70;;;;;;5002216;28;20147;-76
2020/12/24 11:52:16;;;;;;;10.30;2.30;;;10.00;78.70;;;;;;4996109;28;20038;-76
2020/12/24 11:54:42;;;;;;;6.07;2.30;;;10.00;78.50;;;;;;5005271;28;20038;-75
2020/12/24 11:57:08;;;;;;;9.48;2.22;;;10.00;78.50;;;;;;5010643;28;20045;-74
2020/12/24 11:59:34;;;;;;;9.57;3.25;;;10.00;78.40;;;;;;4993597;28;20042;-76
2020/12/24 12:01:59;;;;;;;8.80;2.97;;;10.00;78.40;;;;;;5007262;28;20035;-75
2020/12/24 12:04:26;;;;;;;9.82;2.33;;;10.00;78.40;;;;;;5011438;28;20056;-75
2020/12/24 12:06:52;;;;;;;9.38;2.67;;;10.00;78.40;;;;;;5012184;28;20026;-76
2020/12/24 12:09:18;;;;;;;7.72;3.10;;;10.00;78.70;;;;;;5001540;28;20037;-80
2020/12/24 12:11:46;;;;;;;10.23;2.83;;;10.00;78.70;;;;;;4999377;28;21112;-83
2020/12/24 12:14:12;;;;;;;11.90;2.83;;;10.20;78.60;;;;;;4999662;28;20034;-78
2020/12/24 12:16:37;;;;;;;9.85;2.17;;;10.30;78.20;;;;;;5003116;28;20104;-77
2020/12/24 12:19:03;;;;;;;7.90;2.42;;;10.30;77.90;;;;;;4970606;28;20495;-78
2020/12/24 12:21:29;;;;;;;10.40;2.72;;;10.30;77.80;;;;;;5007286;28;20461;-86
2020/12/24 12:23:56;;;;;;;14.32;2.95;;;10.30;77.90;;;;;;4984499;28;20117;-78
2020/12/24 12:26:21;;;;;;;9.88;3.20;;;10.30;77.70;;;;;;4989059;28;20030;-81
2020/12/24 12:28:47;;;;;;;9.05;2.22;;;10.30;77.70;;;;;;4984613;28;20053;-81
2020/12/24 12:31:20;;;;;;;9.15;2.53;;;10.40;77.50;;;;;;4983733;28;20063;-77
2020/12/24 12:33:47;;;;;;;10.90;2.50;;;10.40;77.40;;;;;;5001952;28;20018;-77
2020/12/24 12:36:13;;;;;;;16.33;2.85;;;10.40;77.40;;;;;;4995593;28;20033;-77
2020/12/24 12:38:39;;;;;;;8.50;2.40;;;10.30;77.50;;;;;;5003439;28;20030;-80
2020/12/24 12:41:04;;;;;;;9.93;2.38;;;10.40;77.30;;;;;;5000209;28;20506;-84
2020/12/24 12:43:30;;;;;;;9.45;2.95;;;10.40;77.30;;;;;;5007169;28;20041;-81
2020/12/24 12:45:56;;;;;;;8.60;2.63;;;10.40;77.20;;;;;;5002026;28;20018;-77
2020/12/24 12:48:21;;;;;;;8.52;2.58;;;10.50;77.20;;;;;;4975483;28;20452;-76
2020/12/24 12:50:48;;;;;;;17.58;4.95;;;10.40;76.70;;;;;;4992687;28;20041;-77
2020/12/24 12:53:13;;;;;;;13.00;3.75;;;10.40;76.90;;;;;;5006947;28;20117;-76
2020/12/24 12:55:40;;;;;;;15.00;4.55;;;10.40;76.70;;;;;;5008784;28;20104;-79